Flight Track Log - Related Links

Times and Time Zones

All times are in EDT time to prevent confusion due to time zone crossing. See the SWA902 flight status page for this flight to view local times or setup timezone preferences in your user account.

Time Position Orientation Groundspeed Altitude Reporting Facility
EDT Latitude Longitude Course Direction KTS MPH feet Rate Location/Type
Wed 08:13:43 AM 42.2303 -83.3508 275° West 158 182 1,500  Level Cleveland Center
Wed 08:14:32 AM 42.2692 -83.3367 15° North 195 224 2,700 1,416 Climbing Cleveland Center
Wed 08:15:12 AM 42.2969 -83.3253 17° North 207 238 3,600 2,333 Climbing Cleveland Center
Wed 08:15:26 AM 42.3211 -83.3156 17° North 226 260 4,800 2,710 Climbing Cleveland Center
Wed 08:16:14 AM 42.3661 -83.2950 19° North 225 259 6,400 2,262 Climbing Cleveland Center
Wed 08:16:27 AM 42.3861 -83.2881 14° North 260 299 7,100 2,710 Climbing Cleveland Center
Wed 08:17:16 AM 42.4217 -83.3303 319° Northwest 255 293 9,200 2,108 Climbing Cleveland Center
Wed 08:18:18 AM 42.4194 -83.4378 268° West 281 323 11,000 1,935 Climbing Cleveland Center
Wed 08:19:00 AM 42.4184 -84.2086 275° West  Level FlightAware Approximate
Wed 08:19:20 AM 42.4214 -83.5683 271° West 342 394 13,200  Level Cleveland Center
Wed 08:20:22 AM 42.4225 -83.6953 271° West 351 404 15,700 2,585 Climbing Cleveland Center
Wed 08:21:23 AM 42.4242 -83.8586 271° West 365 420 18,500 2,341 Climbing Cleveland Center
Wed 08:22:25 AM 42.4256 -84.0006 271° West 377 434 20,500 1,790 Climbing Cleveland Center
Wed 08:23:27 AM 42.4275 -84.1481 271° West 389 448 22,200 1,645 Climbing Cleveland Center
Wed 08:24:29 AM 42.4303 -84.3011 271° West 405 466 23,900 1,584 Climbing Cleveland Center
Wed 08:25:32 AM 42.4347 -84.4558 272° West 410 472 25,500 1,488 Climbing Cleveland Center
Wed 08:26:34 AM 42.4392 -84.6461 272° West 420 483 27,000 1,306 Climbing Cleveland Center
Wed 08:27:36 AM 42.4425 -84.7933 272° West 432 497 28,200 1,376 Climbing Cleveland Center
Wed 08:28:23 AM 42.4464 -84.9233 272° West 436 502 29,500 1,486 Climbing Chicago Center
Wed 08:29:25 AM 42.4489 -85.0828 271° West 432 497 30,900 1,355 Climbing Chicago Center
Wed 08:30:27 AM 42.4536 -85.2764 272° West 432 497 32,300 1,210 Climbing Chicago Center
Wed 08:31:29 AM 42.4569 -85.4350 272° West 431 496 33,400 1,000 Climbing Chicago Center
Wed 08:33:33 AM 42.4622 -85.7528 271° West 425 489 35,400 839 Climbing Chicago Center
Wed 08:34:35 AM 42.4633 -85.9106 271° West 425 489 36,000 290 Climbing Chicago Center
Wed 08:35:37 AM 42.4661 -86.1011 271° West 425 489 36,000  Level Chicago Center
Wed 08:36:39 AM 42.4475 -86.2608 261° West 438 504 36,000  Level Chicago Center
Wed 08:37:41 AM 42.4281 -86.4172 260° West 433 498 36,000  Level Chicago Center
Wed 08:38:43 AM 42.4058 -86.5756 259° West 432 497 36,000  Level Chicago Center
Wed 08:39:45 AM 42.3861 -86.7439 261° West 429 494 36,000  Level Chicago Center
Wed 08:41:49 AM 42.3431 -87.0592 256° West 429 494 36,000  Level Chicago Center
Wed 08:42:51 AM 42.3225 -87.2175 260° West 430 495 36,000  Level Chicago Center
Wed 08:43:53 AM 42.2972 -87.4053 260° West 428 493 36,000  Level Chicago Center
Wed 08:44:55 AM 42.2750 -87.5619 259° West 428 493 36,000  Level Chicago Center
Wed 08:45:57 AM 42.2533 -87.7175 259° West 427 491 36,000  Level Chicago Center
Wed 08:46:59 AM 42.2319 -87.8742 260° West 427 491 36,000  Level Chicago Center
Wed 08:48:00 AM 42.2081 -88.0292 258° West 426 490 36,000  Level Chicago Center
Wed 08:49:02 AM 42.1747 -88.2128 256° West 426 490 36,000  Level Chicago Center
Wed 08:50:04 AM 42.1472 -88.3672 257° West 426 490 36,000  Level Chicago Center
Wed 08:51:06 AM 42.1206 -88.5225 257° West 426 490 36,000  Level Chicago Center
Wed 08:52:08 AM 42.0925 -88.6778 256° West 426 490 36,000  Level Chicago Center
Wed 08:53:10 AM 42.0644 -88.8333 256° West 427 491 36,000  Level Chicago Center
Wed 08:54:12 AM 42.0361 -88.9869 256° West 427 491 36,000  Level Chicago Center
Wed 08:55:14 AM 42.0017 -89.1714 256° West 427 491 36,000  Level Chicago Center
Wed 08:56:16 AM 41.9722 -89.3283 256° West 434 499 36,000  Level Chicago Center
Wed 08:57:18 AM 41.9433 -89.4833 256° West 432 497 36,000  Level Chicago Center
Wed 08:58:20 AM 41.9153 -89.6358 256° West 425 489 36,000  Level Chicago Center
Wed 08:59:22 AM 41.8853 -89.7908 255° West 426 490 36,000  Level Chicago Center
Wed 09:00:23 AM 41.8528 -89.9661 256° West 431 496 36,000  Level Chicago Center
Wed 09:01:25 AM 41.8214 -90.1214 255° West 433 498 36,000  Level Chicago Center
Wed 09:02:27 AM 41.7922 -90.2717 255° West 432 497 36,000  Level Chicago Center
Wed 09:03:29 AM 41.7608 -90.4311 255° West 442 509 36,000  Level Chicago Center
Wed 09:04:31 AM 41.7239 -90.6150 255° West 434 499 36,000  Level Chicago Center
Wed 09:05:33 AM 41.6925 -90.7711 255° West 433 498 36,000  Level Chicago Center
Wed 09:06:35 AM 41.6611 -90.9231 255° West 430 495 36,000  Level Chicago Center
Wed 09:07:37 AM 41.6311 -91.0744 255° West 425 489 36,000  Level Chicago Center
Wed 09:08:39 AM 41.5994 -91.2264 254° West 425 489 36,000  Level Chicago Center
Wed 09:09:41 AM 41.5681 -91.3775 255° West 425 489 36,000  Level Chicago Center
Wed 09:11:45 AM 41.5094 -91.7081 253° West 414 476 36,000  Level Chicago Center
Wed 09:12:47 AM 41.4958 -91.8597 263° West 410 472 36,000  Level Chicago Center
Wed 09:13:48 AM 41.4814 -92.0111 263° West 411 473 36,000  Level Chicago Center
Wed 09:14:51 AM 41.4667 -92.1614 263° West 411 473 36,000  Level Chicago Center
Wed 09:15:53 AM 41.4519 -92.3144 263° West 413 475 36,000  Level Chicago Center
Wed 09:16:55 AM 41.4333 -92.4942 262° West 411 473 36,000  Level Chicago Center
Wed 09:17:55 AM 41.4178 -92.6467 262° West 414 476 36,000  Level Minneapolis Center
Wed 09:18:57 AM 41.4019 -92.7983 262° West 414 476 36,000  Level Minneapolis Center
Wed 09:19:58 AM 41.3872 -92.9475 263° West 414 476 36,000  Level Minneapolis Center
Wed 09:21:00 AM 41.3714 -93.0967 262° West 414 476 36,000  Level Minneapolis Center
Wed 09:22:02 AM 41.3553 -93.2433 262° West 413 475 36,000  Level Minneapolis Center
Wed 09:23:03 AM 41.3358 -93.4189 262° West 408 470 36,000  Level Minneapolis Center
Wed 09:24:05 AM 41.3197 -93.5678 262° West 408 470 36,000  Level Minneapolis Center
Wed 09:26:08 AM 41.2869 -93.8692 262° West 412 474 36,000  Level Minneapolis Center
Wed 09:27:09 AM 41.2678 -94.0219 261° West 417 480 36,000  Level Minneapolis Center
Wed 09:29:12 AM 41.2308 -94.3481 262° West 417 480 36,000  Level Minneapolis Center
Wed 09:30:14 AM 41.2136 -94.4997 261° West 417 480 36,000  Level Minneapolis Center
Wed 09:31:16 AM 41.1956 -94.6514 261° West 417 480 36,000  Level Minneapolis Center
Wed 09:32:17 AM 41.1767 -94.8033 261° West 417 480 36,000  Level Minneapolis Center
Wed 09:33:19 AM 41.1592 -94.9550 261° West 417 480 36,000  Level Minneapolis Center
Wed 09:34:20 AM 41.1397 -95.1072 260° West 417 480 36,000  Level Minneapolis Center
Wed 09:35:22 AM 41.1203 -95.2603 260° West 417 480 36,000  Level Minneapolis Center
Wed 09:36:23 AM 41.1006 -95.4153 260° West 420 483 36,000  Level Minneapolis Center
Wed 09:37:25 AM 41.0761 -95.6000 260° West 421 484 36,000  Level Minneapolis Center
Wed 09:38:26 AM 41.0567 -95.7525 260° West 420 483 36,000  Level Minneapolis Center
Wed 09:40:29 AM 41.0164 -96.0569 261° West 419 482 36,000  Level Minneapolis Center
Wed 09:41:31 AM 40.9961 -96.2086 260° West 418 481 36,000  Level Minneapolis Center
Wed 09:42:32 AM 40.9753 -96.3594 260° West 418 481 36,000  Level Minneapolis Center
Wed 09:43:34 AM 40.9547 -96.5106 260° West 417 480 36,000  Level Minneapolis Center
Wed 09:45:37 AM 40.9067 -96.8144 257° West 420 483 36,000  Level Minneapolis Center
Wed 09:46:38 AM 40.8619 -96.9603 248° West 423 487 36,000  Level Minneapolis Center
Wed 09:47:40 AM 40.8189 -97.1061 249° West 423 487 36,000  Level Minneapolis Center
Wed 09:48:41 AM 40.7772 -97.2511 249° West 424 488 36,000  Level Minneapolis Center
Wed 09:49:43 AM 40.7278 -97.4244 249° West 423 487 36,000  Level Minneapolis Center
Wed 09:50:44 AM 40.6861 -97.5672 249° West 423 487 36,000  Level Minneapolis Center
Wed 09:51:46 AM 40.6444 -97.7100 249° West 423 487 36,000  Level Minneapolis Center
Wed 09:52:47 AM 40.6025 -97.8517 249° West 422 486 36,000  Level Minneapolis Center
Wed 09:54:56 AM 40.5131 -98.1636 249° West 416 479 36,000  Level Denver Center
Wed 09:55:52 AM 40.4778 -98.2764 248° West 420 483 36,000  Level Minneapolis Center
Wed 09:58:00 AM 40.3803 -98.5933 248° West 417 480 36,000  Level Denver Center
Wed 09:59:01 AM 40.3406 -98.7289 249° West 417 480 36,000  Level Denver Center
Wed 10:01:04 AM 40.2519 -99.0197 248° West 416 479 36,000  Level Denver Center
Wed 10:02:05 AM 40.2100 -99.1528 248° West 414 476 36,000  Level Denver Center
Wed 10:04:08 AM 40.1208 -99.4392 248° West 411 473 36,000  Level Denver Center
Wed 10:05:10 AM 40.0731 -99.5917 248° West 409 471 36,000  Level Denver Center
Wed 10:07:10 AM 39.9878 -99.8608 248° West 411 473 36,000  Level Minneapolis Center
Wed 10:08:14 AM 39.9417 -100.0067 248° West 409 471 36,000  Level Denver Center
Wed 10:09:16 AM 39.8997 -100.1397 248° West 409 471 36,000  Level Denver Center
Wed 10:10:17 AM 39.8506 -100.2928 247° West 409 471 36,000  Level Denver Center
Wed 10:11:19 AM 39.8078 -100.4239 247° West 409 471 36,000  Level Denver Center
Wed 10:12:20 AM 39.7650 -100.5564 247° West 411 473 36,000  Level Denver Center
Wed 10:13:22 AM 39.7158 -100.7111 248° West 411 473 36,000  Level Denver Center
Wed 10:14:23 AM 39.6714 -100.8436 246° West 414 476 36,000  Level Denver Center
Wed 10:15:25 AM 39.6200 -100.9994 247° West 416 479 36,000  Level Denver Center
Wed 10:16:27 AM 39.5761 -101.1339 247° West 419 482 36,000  Level Denver Center
Wed 10:17:29 AM 39.5236 -101.2883 246° West 420 483 36,000  Level Denver Center
Wed 10:18:30 AM 39.4794 -101.4206 247° West 420 483 36,000  Level Denver Center
Wed 10:19:32 AM 39.4350 -101.5519 246° West 419 482 36,000  Level Denver Center
Wed 10:20:34 AM 39.3836 -101.7050 247° West 418 481 36,000  Level Denver Center
Wed 10:21:36 AM 39.3328 -101.8331 243° Southwest 417 480 36,000  Level Denver Center
Wed 10:29:01 AM 38.9411 -102.8392 243° Southwest 416 479 36,000  Level Denver Center
Wed 10:30:03 AM 38.8894 -102.9694 243° Southwest 414 476 36,000  Level Denver Center
Wed 10:32:07 AM 38.7856 -103.2314 243° Southwest 411 473 36,000  Level Denver Center
Wed 10:34:11 AM 38.6794 -103.4931 258° West 413 475 36,000  Level Denver Center
Wed 10:35:00 AM 38.6512 -103.5361 243° Southwest  Level FlightAware Approximate
Wed 10:35:13 AM 38.6269 -103.6236 243° Southwest 413 475 36,000  Level Denver Center
Wed 10:36:00 AM 38.6010 -103.6630 243° Southwest  Level FlightAware Approximate
Wed 10:36:15 AM 38.5619 -103.7803 242° Southwest 413 475 36,000  Level Denver Center
Wed 10:37:17 AM 38.5092 -103.9094 242° Southwest 413 475 36,000  Level Denver Center
Wed 10:38:19 AM 38.4553 -104.0411 242° Southwest 413 475 36,000  Level Denver Center
Wed 10:39:21 AM 38.4017 -104.1731 243° Southwest 414 476 36,000  Level Denver Center
Wed 10:40:23 AM 38.3478 -104.3014 242° Southwest 414 476 36,000  Level Denver Center
Wed 10:41:25 AM 38.3014 -104.4356 246° West 418 481 36,000  Level Denver Center
Wed 10:42:27 AM 38.3192 -104.6061 278° West 409 471 36,000  Level Denver Center
Wed 10:43:29 AM 38.3375 -104.7503 279° West 409 471 36,000  Level Denver Center
Wed 10:44:32 AM 38.3572 -104.8936 280° West 409 471 36,000  Level Denver Center
Wed 10:45:34 AM 38.3761 -105.0353 280° West 409 471 36,000  Level Denver Center
Wed 10:46:36 AM 38.3950 -105.1731 280° West 401 461 36,000  Level Denver Center
Wed 10:47:38 AM 38.4128 -105.3142 279° West 401 461 36,000  Level Denver Center
Wed 10:48:40 AM 38.4336 -105.4792 279° West 398 458 36,000  Level Denver Center
Wed 10:49:42 AM 38.4531 -105.6181 280° West 398 458 36,000  Level Denver Center
Wed 10:51:46 AM 38.4881 -105.9006 282° West 397 457 36,000  Level Denver Center
Wed 10:52:48 AM 38.4994 -106.0417 276° West 398 458 36,000  Level Denver Center
Wed 10:54:52 AM 38.4856 -106.3306 267° West 405 466 36,000  Level Denver Center
Wed 10:55:54 AM 38.4789 -106.4767 267° West 406 467 36,000  Level Denver Center
Wed 11:00:02 AM 38.4364 -107.0869 246° West 412 474 36,000  Level Denver Center
Wed 11:03:09 AM 38.2986 -107.5008 246° West 412 474 36,000  Level Denver Center
Wed 11:04:00 AM 38.2622 -107.5733 246° West  Level FlightAware Approximate
Wed 11:04:11 AM 38.2497 -107.6467 247° West 408 470 36,000  Level Denver Center
Wed 11:05:00 AM 38.2168 -107.7024 246° West  Level FlightAware Approximate
Wed 11:06:15 AM 38.1639 -107.9022 247° West 408 470 36,000  Level Denver Center
Wed 11:07:17 AM 38.1139 -108.0494 247° West 408 470 36,000  Level Denver Center
Wed 11:08:19 AM 38.0714 -108.1736 247° West 405 466 36,000  Level Denver Center
Wed 11:09:21 AM 38.0214 -108.3169 246° West 402 463 36,000  Level Denver Center
Wed 11:11:25 AM 37.9731 -108.5908 257° West 389 448 36,000  Level Denver Center
Wed 11:12:27 AM 38.0211 -108.7039 298° West 384 442 36,000  Level Denver Center
Wed 11:13:29 AM 38.1264 -108.7808 330° Northwest 389 448 36,000  Level Denver Center
Wed 11:17:50 AM 38.0775 -109.3031 246° West 394 453 36,000  Level Denver Center
Wed 11:19:32 AM 37.9994 -109.5250 246° West 398 458 36,000  Level Los Angeles Center
Wed 11:20:56 AM 37.9375 -109.6892 244° Southwest 401 461 36,000  Level Denver Center
Wed 11:21:58 AM 37.8850 -109.8328 245° Southwest 401 461 36,000 -183 Level Denver Center
Wed 11:22:00 AM 37.7924 -109.8896 246° West  Level FlightAware Approximate
Wed 11:23:00 AM 37.7474 -110.0176 246° West  Level FlightAware Approximate
Wed 11:23:40 AM 37.8106 -110.0381 245° Southwest 400 460 35,500  Level Los Angeles Center
Wed 11:24:42 AM 37.7636 -110.1656 245° Southwest 400 460 34,500 -1,065 Descending Los Angeles Center
Wed 11:25:44 AM 37.7019 -110.3144 242° Southwest 400 460 33,300 -1,113 Descending Los Angeles Center
Wed 11:26:46 AM 37.6578 -110.4358 245° Southwest 389 448 32,200 -629 Descending Los Angeles Center
Wed 11:27:48 AM 37.6133 -110.5575 245° Southwest 384 442 32,000 -97 Descending Los Angeles Center
Wed 11:28:50 AM 37.5650 -110.6836 244° Southwest 392 451 32,000  Level Los Angeles Center
Wed 11:30:15 AM 37.5000 -110.8592 245° Southwest 396 456 32,000  Level Denver Center
Wed 11:32:19 AM 37.3939 -111.1383 245° Southwest 401 461 32,000  Level Denver Center
Wed 11:33:34 AM 37.3353 -111.2903 244° Southwest 401 461 32,000  Level Denver Center
Wed 11:34:36 AM 37.2867 -111.4164 244° Southwest 402 463 32,000  Level Denver Center
Wed 11:35:38 AM 37.2392 -111.5431 245° Southwest 403 464 32,000  Level Denver Center
Wed 11:38:44 AM 37.0914 -111.9203 244° Southwest 402 463 32,000 -290 Level Denver Center
Wed 11:39:46 AM 37.0325 -112.0700 244° Southwest 402 463 30,800 -1,065 Descending Denver Center
Wed 11:40:48 AM 36.9828 -112.1950 244° Southwest 402 463 29,800 -968 Descending Denver Center
Wed 11:41:50 AM 36.9422 -112.3214 248° West 394 453 28,800 -947 Descending Denver Center
Wed 11:43:20 AM 36.9056 -112.5033 256° West 385 443 27,400 -1,026 Descending Los Angeles Center
Wed 11:44:22 AM 36.8756 -112.6539 256° West 376 433 26,200 -1,104 Descending Los Angeles Center
Wed 11:45:25 AM 36.8489 -112.7794 255° West 375 432 25,100 -1,008 Descending Los Angeles Center
Wed 11:46:27 AM 36.8236 -112.9031 256° West 370 426 24,100 -968 Descending Los Angeles Center
Wed 11:47:29 AM 36.7986 -113.0258 256° West 368 423 23,100 -968 Descending Los Angeles Center
Wed 11:49:33 AM 36.7350 -113.2683 252° West 368 423 21,100 -1,032 Descending Los Angeles Center
Wed 11:50:35 AM 36.6950 -113.4075 250° West 360 414 19,900 -1,032 Descending Los Angeles Center
Wed 11:52:39 AM 36.6328 -113.6367 243° Southwest 352 405 17,900 -930 Descending Los Angeles Center
Wed 11:53:42 AM 36.6008 -113.7472 250° West 345 397 17,000 -912 Descending Los Angeles Center
Wed 11:54:44 AM 36.5703 -113.8581 251° West 343 395 16,000 -968 Descending Los Angeles Center
Wed 11:55:46 AM 36.5406 -113.9694 252° West 342 394 15,000 -1,000 Descending Los Angeles Center
Wed 11:57:00 AM 36.4680 -114.1104 237° Southwest  Level FlightAware Approximate
Wed 11:57:50 AM 36.4775 -114.1911 237° Southwest 328 377 12,900  Level Los Angeles Center
Wed 11:58:34 AM 36.4522 -114.2861 252° West 322 371 12,000 -871 Descending Los Angeles Center
Wed 11:58:52 AM 36.4478 -114.2942 236° Southwest 321 369 12,000  Level Los Angeles Center
Wed 11:59:29 AM 36.4233 -114.3789 250° West 313 360 12,000  Level Los Angeles Center
Wed 11:59:55 AM 36.4131 -114.4150 251° West 308 354 12,000 -273 Level Los Angeles Center
Wed 12:00:57 PM 36.3658 -114.4869 231° Southwest 292 336 11,600 -625 Descending Los Angeles Center
Wed 12:01:31 PM 36.3197 -114.4972 190° South 285 328 11,000 -968 Descending Los Angeles Center
Wed 12:01:59 PM 36.2867 -114.5019 187° South 291 335 10,600 -800 Descending Los Angeles Center
Wed 12:03:01 PM 36.2108 -114.5172 189° South 279 321 9,800 -830 Descending Los Angeles Center
Wed 12:03:33 PM 36.1836 -114.5461 221° Southwest 231 266 9,300 -774 Descending Los Angeles Center
Wed 12:04:03 PM 36.1667 -114.5714 230° Southwest 244 281 9,000 -984 Descending Los Angeles Center
Wed 12:04:34 PM 36.1422 -114.6133 234° Southwest 217 250 8,300 -952 Descending Los Angeles Center
Wed 12:05:06 PM 36.1306 -114.6314 231° Southwest 223 257 8,000 -295 Descending Los Angeles Center
Wed 12:05:35 PM 36.1058 -114.6736 234° Southwest 223 257 8,000  Level Los Angeles Center
Wed 12:06:08 PM 36.0850 -114.7067 232° Southwest 223 257 8,000 -316 Level Los Angeles Center
Wed 12:07:10 PM 36.0725 -114.7803 258° West 221 254 7,500 -607 Descending Los Angeles Center
Wed 12:07:37 PM 36.0725 -114.8156 270° West 214 246 7,100 -1,023 Descending Los Angeles Center
Wed 12:08:38 PM 36.0728 -114.8953 270° West 215 247 6,000 -1,175 Descending Los Angeles Center
Wed 12:09:14 PM 36.0744 -114.9336 273° West 219 252 5,200 -1,279 Descending Los Angeles Center
Wed 12:09:39 PM 36.0728 -114.9644 266° West 198 228 4,700 -1,065 Descending Los Angeles Center
Wed 12:10:16 PM 36.0742 -115.0008 273° West 184 212 4,100 -984 Descending Los Angeles Center
Wed 12:10:40 PM 36.0725 -115.0231 265° West 173 199 3,700 -871 Descending Los Angeles Center
Wed 12:11:18 PM 36.0739 -115.0589 273° West 174 200 3,200 -832 Descending Los Angeles Center
Wed 12:12:21 PM 36.0733 -115.1161 269° West 158 182 2,300 -857 Descending Los Angeles Center
Wed 12:14:00 PM 36.0667 -115.1500 219° Southwest  Level FlightAware Approximate

Login

Don't have an account? Register now (free) for customized features, flight alerts, and more!